createdAt,value
2023-02-02T00:01:20.935Z,4.10
2023-02-02T00:06:24.998Z,3.96
2023-02-02T00:11:27.873Z,3.88
2023-02-02T00:16:29.737Z,3.91
2023-02-02T00:21:31.773Z,3.87
2023-02-02T00:26:33.762Z,3.97
2023-02-02T00:31:36.200Z,3.92
2023-02-02T00:36:38.644Z,3.99
2023-02-02T00:41:40.764Z,4.01
2023-02-02T00:46:43.169Z,3.95
2023-02-02T00:51:45.045Z,3.89
2023-02-02T00:56:47.037Z,3.80
2023-02-02T01:01:49.036Z,3.67
2023-02-02T01:06:51.520Z,3.65
2023-02-02T01:11:53.563Z,3.68
2023-02-02T01:16:55.464Z,3.64
2023-02-02T01:21:57.437Z,3.65
2023-02-02T01:26:59.397Z,3.50
2023-02-02T01:32:01.338Z,3.58
2023-02-02T01:37:03.323Z,3.62
2023-02-02T01:42:14.038Z,3.63
2023-02-02T01:47:16.181Z,3.48
2023-02-02T01:52:19.344Z,3.66
2023-02-02T01:57:24.247Z,3.52
2023-02-02T02:02:27.658Z,3.56
2023-02-02T02:07:29.923Z,3.57
2023-02-02T02:12:31.966Z,3.56
2023-02-02T02:18:02.067Z,3.58
2023-02-02T02:24:00.316Z,3.58
2023-02-02T02:29:17.805Z,3.64
2023-02-02T02:34:43.739Z,3.59
2023-02-02T02:39:51.842Z,3.59
2023-02-02T02:44:55.463Z,3.55
2023-02-02T02:49:57.630Z,3.62
2023-02-02T02:55:00.889Z,3.56
2023-02-02T03:00:08.036Z,3.59
2023-02-02T03:05:28.603Z,3.58
2023-02-02T03:10:30.948Z,3.54
2023-02-02T03:15:33.496Z,3.49
2023-02-02T03:20:36.403Z,3.49
2023-02-02T03:25:38.430Z,3.47
2023-02-02T03:30:42.372Z,3.40
2023-02-02T03:35:45.036Z,3.21
2023-02-02T03:40:46.905Z,3.15
2023-02-02T03:45:48.893Z,3.28
2023-02-02T03:50:50.852Z,3.23
2023-02-02T03:55:52.758Z,3.19
2023-02-02T04:00:55.771Z,3.21
2023-02-02T04:05:57.736Z,3.05
2023-02-02T04:10:59.791Z,3.17
2023-02-02T04:16:01.915Z,3.21
2023-02-02T04:21:05.227Z,3.21
2023-02-02T04:26:07.581Z,3.19
2023-02-02T04:31:09.861Z,3.06
2023-02-02T04:41:15.087Z,3.03
2023-02-02T04:46:17.170Z,2.98
2023-02-02T04:51:19.043Z,2.84
2023-02-02T04:56:20.925Z,2.84
2023-02-02T05:01:23.864Z,2.79
2023-02-02T05:06:25.821Z,2.78
2023-02-02T05:11:27.854Z,2.75
2023-02-02T05:16:29.855Z,2.73
2023-02-02T05:21:31.731Z,2.69
2023-02-02T05:26:33.739Z,2.64
2023-02-02T05:31:36.174Z,2.64
2023-02-02T05:36:38.237Z,2.63
2023-02-02T05:41:40.126Z,2.61
2023-02-02T05:46:42.606Z,2.61
2023-02-02T05:51:48.894Z,2.58
2023-02-02T05:56:52.820Z,2.53
2023-02-02T06:01:55.734Z,2.59
2023-02-02T06:06:58.128Z,2.50
2023-02-02T06:12:00.176Z,2.56
2023-02-02T06:17:02.097Z,2.55
2023-02-02T06:22:04.165Z,2.50
2023-02-02T06:27:06.210Z,2.45
2023-02-02T06:32:08.316Z,2.44
2023-02-02T06:37:10.490Z,2.54
2023-02-02T06:42:21.429Z,2.51
2023-02-02T06:47:26.585Z,2.50
2023-02-02T06:52:29.094Z,2.46
2023-02-02T06:57:31.076Z,2.43
2023-02-02T07:02:33.142Z,2.42
2023-02-02T07:07:35.569Z,2.37
2023-02-02T07:12:38.250Z,2.21
2023-02-02T07:17:40.230Z,2.22
2023-02-02T07:22:42.333Z,2.16
2023-02-02T07:27:44.490Z,2.13
2023-02-02T07:32:50.661Z,2.11
2023-02-02T07:37:53.971Z,2.13
2023-02-02T07:42:56.414Z,1.91
2023-02-02T07:47:59.422Z,1.95
2023-02-02T07:53:01.698Z,1.88
2023-02-02T07:58:04.576Z,1.77
2023-02-02T08:03:06.884Z,1.75
2023-02-02T08:08:09.034Z,1.79
2023-02-02T08:13:11.037Z,1.89
2023-02-02T08:18:13.035Z,1.94
2023-02-02T08:23:16.981Z,2.04
2023-02-02T08:28:19.768Z,2.05
2023-02-02T08:33:21.769Z,2.13
2023-02-02T08:38:24.553Z,2.37
2023-02-02T08:43:26.524Z,2.47
2023-02-02T08:48:29.991Z,2.45
2023-02-02T08:53:32.339Z,2.68
2023-02-02T08:58:34.752Z,2.77
2023-02-02T09:03:39.388Z,2.89
2023-02-02T09:08:41.685Z,3.04
2023-02-02T09:13:49.032Z,3.28
2023-02-02T09:18:51.277Z,3.54
2023-02-02T09:23:54.315Z,3.85
2023-02-02T09:29:02.968Z,4.22
2023-02-02T09:34:10.351Z,5.19
2023-02-02T09:39:13.568Z,6.91
2023-02-02T09:44:34.473Z,7.92
2023-02-02T09:50:03.359Z,8.62
2023-02-02T09:55:23.554Z,8.96
2023-02-02T10:00:34.895Z,9.50
2023-02-02T10:06:05.128Z,10.06
2023-02-02T10:11:26.653Z,10.47
2023-02-02T10:16:29.453Z,10.46
2023-02-02T10:21:40.894Z,11.03
2023-02-02T10:26:50.715Z,11.69
2023-02-02T10:32:26.942Z,12.05
2023-02-02T10:38:07.466Z,12.29
2023-02-02T10:43:37.464Z,12.95
2023-02-02T10:48:39.665Z,13.30
2023-02-02T10:53:44.981Z,13.46
2023-02-02T10:58:52.676Z,13.98
2023-02-02T11:04:14.854Z,14.24
2023-02-02T11:09:37.096Z,14.56
2023-02-02T11:15:01.991Z,14.20
2023-02-02T11:20:23.388Z,12.62
2023-02-02T11:25:34.166Z,11.36
2023-02-02T11:30:37.847Z,11.13
2023-02-02T11:35:54.079Z,10.94
2023-02-02T11:41:07.191Z,10.60
2023-02-02T11:46:22.873Z,10.66
2023-02-02T11:51:26.856Z,10.84
2023-02-02T11:56:29.103Z,10.66
2023-02-02T12:01:44.228Z,10.68
2023-02-02T12:06:46.870Z,10.76
2023-02-02T12:12:02.309Z,10.50
2023-02-02T12:17:28.975Z,10.56
2023-02-02T12:22:55.690Z,10.55
2023-02-02T12:28:02.335Z,10.46
2023-02-02T12:33:18.907Z,10.50
2023-02-02T12:38:23.748Z,10.48
2023-02-02T12:43:39.602Z,10.48
2023-02-02T12:49:06.550Z,10.41
2023-02-02T12:54:34.518Z,10.43
2023-02-02T12:59:52.445Z,10.34
2023-02-02T13:05:16.995Z,10.18
2023-02-02T13:10:30.923Z,10.32
2023-02-02T13:15:37.963Z,10.62
2023-02-02T13:20:44.443Z,10.80
2023-02-02T13:25:52.841Z,10.91
2023-02-02T13:30:57.688Z,10.88
2023-02-02T13:36:10.085Z,11.02
2023-02-02T13:41:13.937Z,10.95
2023-02-02T13:46:30.591Z,11.27
2023-02-02T13:51:51.629Z,11.37
2023-02-02T13:57:08.653Z,11.19
2023-02-02T14:02:48.086Z,11.20
2023-02-02T14:08:07.391Z,11.18
2023-02-02T14:13:46.165Z,11.28
2023-02-02T14:18:54.682Z,11.39
2023-02-02T14:23:57.761Z,11.64
2023-02-02T14:28:59.732Z,11.82
2023-02-02T14:34:42.193Z,11.76
2023-02-02T14:40:08.993Z,11.82
2023-02-02T14:45:10.856Z,11.85
2023-02-02T14:50:17.941Z,11.75
2023-02-02T14:55:20.359Z,11.84
2023-02-02T15:00:29.057Z,11.92
2023-02-02T15:05:34.290Z,11.85
2023-02-02T15:11:00.901Z,11.87
2023-02-02T15:16:11.848Z,11.88
2023-02-02T15:21:16.134Z,11.88
2023-02-02T15:26:25.072Z,11.89
2023-02-02T15:31:30.718Z,11.86
2023-02-02T15:36:34.754Z,11.86
2023-02-02T15:41:43.180Z,12.15
2023-02-02T15:46:45.331Z,12.13
2023-02-02T15:51:49.504Z,12.01
2023-02-02T15:56:52.177Z,11.88
2023-02-02T16:02:12.017Z,11.84
2023-02-02T16:07:23.819Z,12.00
2023-02-02T16:12:26.248Z,11.91
2023-02-02T16:17:32.793Z,11.92
2023-02-02T16:22:36.121Z,11.74
2023-02-02T16:27:38.654Z,11.76
2023-02-02T16:32:42.009Z,11.54
2023-02-02T16:37:44.424Z,11.32
2023-02-02T16:43:07.291Z,11.04
2023-02-02T16:48:29.141Z,11.06
2023-02-02T16:53:31.475Z,10.97
2023-02-02T16:58:38.815Z,11.01
2023-02-02T17:03:54.868Z,11.04
2023-02-02T17:08:56.868Z,10.93
2023-02-02T17:14:19.089Z,10.86
2023-02-02T17:19:21.052Z,10.54
2023-02-02T17:24:23.292Z,10.28
2023-02-02T17:29:25.264Z,10.09
2023-02-02T17:34:27.256Z,9.88
2023-02-02T17:39:29.174Z,9.74
2023-02-02T17:44:31.297Z,9.48
2023-02-02T17:49:33.418Z,9.36
2023-02-02T17:54:35.464Z,9.22
2023-02-02T17:59:37.451Z,9.17
2023-02-02T18:04:39.494Z,9.09
2023-02-02T18:09:41.636Z,8.95
2023-02-02T18:14:43.800Z,8.85
2023-02-02T18:19:47.322Z,8.59
2023-02-02T18:24:49.433Z,8.45
2023-02-02T18:29:52.715Z,8.43
2023-02-02T18:34:56.138Z,8.31
2023-02-02T18:39:58.165Z,8.31
2023-02-02T18:45:00.762Z,8.20
2023-02-02T18:50:02.865Z,8.15
2023-02-02T18:55:04.942Z,8.02
2023-02-02T19:00:07.579Z,8.04
2023-02-02T19:05:28.461Z,7.96
2023-02-02T19:10:30.584Z,7.99
2023-02-02T19:15:34.539Z,7.98
2023-02-02T19:20:38.116Z,7.91
2023-02-02T19:25:41.843Z,7.87
2023-02-02T19:30:45.849Z,7.70
2023-02-02T19:35:49.773Z,7.68
2023-02-02T19:40:51.653Z,7.61
2023-02-02T19:45:54.909Z,7.43
2023-02-02T19:50:58.141Z,7.39
2023-02-02T19:56:00.221Z,7.30
2023-02-02T20:01:08.076Z,7.26
2023-02-02T20:06:18.298Z,7.18
2023-02-02T20:11:30.668Z,6.97
2023-02-02T20:16:42.791Z,6.88
2023-02-02T20:21:48.548Z,6.85
2023-02-02T20:26:52.442Z,6.79
2023-02-02T20:31:56.629Z,6.75
2023-02-02T20:37:13.759Z,6.63
2023-02-02T20:42:15.835Z,6.63
2023-02-02T20:47:18.029Z,6.60
2023-02-02T20:52:24.168Z,6.50
2023-02-02T20:57:26.984Z,6.48
2023-02-02T21:02:28.988Z,6.27
2023-02-02T21:07:30.969Z,6.22
2023-02-02T21:12:32.932Z,6.21
2023-02-02T21:17:34.800Z,5.94
2023-02-02T21:22:36.967Z,5.92
2023-02-02T21:27:41.408Z,5.69
2023-02-02T21:32:44.225Z,5.69
2023-02-02T21:37:50.532Z,5.59
2023-02-02T21:42:52.589Z,5.45
2023-02-02T21:47:58.458Z,5.36
2023-02-02T21:53:38.965Z,5.28
2023-02-02T21:58:42.229Z,5.10
2023-02-02T22:03:46.891Z,5.11
2023-02-02T22:08:49.749Z,4.90
2023-02-02T22:13:53.641Z,4.90
2023-02-02T22:18:55.769Z,4.92
2023-02-02T22:23:57.726Z,4.99
2023-02-02T22:28:59.932Z,4.93
2023-02-02T22:34:01.942Z,4.92
2023-02-02T22:39:04.545Z,4.87
2023-02-02T22:44:06.627Z,4.70
2023-02-02T22:49:08.563Z,4.75
2023-02-02T22:54:10.600Z,4.74
2023-02-02T22:59:12.644Z,4.69
2023-02-02T23:04:14.975Z,4.61
2023-02-02T23:09:16.986Z,4.62
2023-02-02T23:14:19.627Z,4.68
2023-02-02T23:19:21.805Z,4.62
2023-02-02T23:24:23.754Z,4.59
2023-02-02T23:29:25.769Z,4.55
2023-02-02T23:34:27.763Z,4.37
2023-02-02T23:39:29.759Z,4.27
2023-02-02T23:44:31.638Z,4.10
2023-02-02T23:49:34.537Z,4.11
2023-02-02T23:54:36.759Z,3.92
2023-02-02T23:59:38.750Z,3.92
